createdAt,value
2019-04-25T00:01:46.707Z,13.40
2019-04-25T00:04:17.390Z,13.50
2019-04-25T00:06:47.661Z,13.60
2019-04-25T00:09:21.855Z,13.80
2019-04-25T00:11:52.462Z,14.00
2019-04-25T00:14:23.612Z,14.20
2019-04-25T00:16:54.856Z,14.30
2019-04-25T00:19:25.138Z,14.30
2019-04-25T00:21:59.803Z,14.30
2019-04-25T00:24:42.917Z,14.30
2019-04-25T00:27:13.011Z,14.30
2019-04-25T00:29:44.530Z,14.30
2019-04-25T00:32:15.499Z,14.30
2019-04-25T00:34:47.428Z,14.20
2019-04-25T00:37:17.728Z,14.10
2019-04-25T00:39:47.983Z,14.00
2019-04-25T00:42:18.263Z,13.90
2019-04-25T00:44:48.522Z,13.80
2019-04-25T00:47:19.198Z,13.70
2019-04-25T00:49:50.034Z,13.70
2019-04-25T00:52:21.142Z,13.60
2019-04-25T00:54:53.433Z,13.60
2019-04-25T00:57:24.489Z,13.60
2019-04-25T00:59:56.386Z,13.50
2019-04-25T01:02:28.315Z,13.50
2019-04-25T01:04:58.571Z,13.50
2019-04-25T01:07:28.872Z,13.60
2019-04-25T01:09:59.167Z,13.70
2019-04-25T01:12:31.304Z,13.80
2019-04-25T01:15:01.805Z,13.80
2019-04-25T01:17:32.438Z,13.90
2019-04-25T01:20:04.183Z,14.00
2019-04-25T01:22:34.530Z,14.00
2019-04-25T01:25:09.089Z,14.10
2019-04-25T01:27:39.353Z,14.10
2019-04-25T01:30:09.751Z,14.20
2019-04-25T01:32:40.032Z,14.20
2019-04-25T01:35:14.952Z,14.30
2019-04-25T01:37:47.485Z,14.30
2019-04-25T01:40:35.535Z,14.30
2019-04-25T01:43:23.554Z,14.40
2019-04-25T01:45:56.033Z,14.40
2019-04-25T01:48:26.372Z,14.40
2019-04-25T01:50:56.671Z,14.30
2019-04-25T01:53:26.934Z,14.30
2019-04-25T01:56:02.729Z,14.30
2019-04-25T01:58:29.203Z,14.30
2019-04-25T02:00:59.506Z,14.20
2019-04-25T02:03:30.162Z,14.30
2019-04-25T02:06:01.115Z,14.30
2019-04-25T02:08:31.419Z,14.30
2019-04-25T02:11:09.064Z,14.20
2019-04-25T02:13:39.354Z,14.20
2019-04-25T02:16:10.088Z,14.20
2019-04-25T02:18:40.399Z,14.10
2019-04-25T02:21:10.936Z,14.00
2019-04-25T02:23:41.226Z,13.90
2019-04-25T02:26:15.920Z,13.90
2019-04-25T02:28:44.089Z,13.80
2019-04-25T02:31:17.994Z,13.80
2019-04-25T02:33:46.670Z,13.80
2019-04-25T02:36:16.905Z,13.90
2019-04-25T02:38:47.177Z,13.90
2019-04-25T02:41:17.483Z,13.80
2019-04-25T02:43:47.751Z,13.80
2019-04-25T02:46:26.707Z,13.70
2019-04-25T02:49:06.890Z,13.70
2019-04-25T02:51:39.276Z,13.70
2019-04-25T02:54:09.572Z,13.70
2019-04-25T02:56:39.862Z,13.70
2019-04-25T02:59:10.131Z,13.80
2019-04-25T03:01:40.401Z,13.80
2019-04-25T03:04:11.387Z,13.80
2019-04-25T03:06:44.885Z,13.80
2019-04-25T03:09:15.502Z,13.90
2019-04-25T03:11:47.736Z,13.90
2019-04-25T03:14:18.157Z,14.00
2019-04-25T03:16:48.431Z,14.10
2019-04-25T03:19:35.257Z,14.10
2019-04-25T03:22:16.064Z,14.20
2019-04-25T03:24:46.348Z,14.20
2019-04-25T03:27:16.621Z,14.10
2019-04-25T03:29:46.918Z,14.20
2019-04-25T03:32:19.821Z,14.20
2019-04-25T03:34:50.139Z,14.20
2019-04-25T03:37:20.442Z,14.20
2019-04-25T03:39:51.060Z,14.20
2019-04-25T03:42:21.332Z,14.20
2019-04-25T03:44:53.807Z,14.20
2019-04-25T03:47:24.355Z,14.20
2019-04-25T03:49:55.440Z,14.20
2019-04-25T03:52:25.773Z,14.30
2019-04-25T03:54:56.845Z,14.30
2019-04-25T03:57:27.302Z,14.40
2019-04-25T03:59:59.305Z,14.40
2019-04-25T04:02:30.349Z,14.40
2019-04-25T04:05:00.635Z,14.40
2019-04-25T04:07:30.963Z,14.40
2019-04-25T04:10:01.225Z,14.40
2019-04-25T04:12:31.695Z,14.30
2019-04-25T04:15:03.787Z,14.30
2019-04-25T04:17:35.887Z,14.20
2019-04-25T04:20:07.378Z,14.20
2019-04-25T04:22:55.032Z,14.20
2019-04-25T04:25:25.764Z,14.20
2019-04-25T04:27:56.127Z,14.10
2019-04-25T04:30:26.384Z,14.10
2019-04-25T04:32:56.945Z,14.10
2019-04-25T04:35:27.210Z,14.00
2019-04-25T04:37:57.569Z,13.80
2019-04-25T04:40:27.853Z,13.70
2019-04-25T04:42:58.140Z,13.60
2019-04-25T04:45:28.401Z,13.50
2019-04-25T04:47:58.753Z,13.40
2019-04-25T04:50:29.038Z,13.30
2019-04-25T04:52:59.292Z,13.30
2019-04-25T04:55:29.560Z,13.20
2019-04-25T04:58:01.417Z,13.10
2019-04-25T05:00:31.786Z,13.10
2019-04-25T05:03:06.327Z,13.00
2019-04-25T05:05:38.270Z,12.90
2019-04-25T05:08:18.807Z,12.80
2019-04-25T05:10:49.063Z,12.80
2019-04-25T05:13:19.790Z,12.70
2019-04-25T05:15:50.223Z,12.70
2019-04-25T05:18:31.588Z,12.60
2019-04-25T05:20:54.128Z,12.50
2019-04-25T05:23:24.920Z,12.50
2019-04-25T05:25:55.771Z,12.60
2019-04-25T05:28:26.098Z,12.60
2019-04-25T05:30:58.035Z,12.60
2019-04-25T05:33:28.445Z,12.60
2019-04-25T05:35:58.726Z,12.70
2019-04-25T05:38:29.007Z,12.80
2019-04-25T05:41:06.619Z,12.90
2019-04-25T05:43:38.549Z,13.00
2019-04-25T05:46:08.831Z,13.00
2019-04-25T05:48:39.125Z,13.00
2019-04-25T05:51:11.087Z,12.90
2019-04-25T05:53:41.344Z,12.90
2019-04-25T05:56:11.665Z,12.80
2019-04-25T05:58:43.851Z,12.80
2019-04-25T06:01:13.933Z,12.80
2019-04-25T06:03:44.187Z,12.90
2019-04-25T06:06:14.499Z,13.00
2019-04-25T06:08:46.383Z,13.20
2019-04-25T06:11:27.961Z,13.40
2019-04-25T06:14:00.355Z,13.60
2019-04-25T06:16:33.356Z,13.90
2019-04-25T06:19:13.593Z,14.10
2019-04-25T06:21:37.382Z,14.40
2019-04-25T06:24:21.148Z,14.70
2019-04-25T06:27:03.830Z,14.90
2019-04-25T06:29:34.784Z,15.10
2019-04-25T06:32:08.388Z,15.40
2019-04-25T06:34:37.214Z,15.60
2019-04-25T06:37:07.494Z,15.80
2019-04-25T06:39:37.750Z,15.90
2019-04-25T06:42:08.041Z,16.00
2019-04-25T06:44:49.136Z,16.20
2019-04-25T06:47:27.058Z,16.40
2019-04-25T06:49:57.344Z,16.50
2019-04-25T06:52:30.005Z,16.60
2019-04-25T06:54:59.550Z,16.60
2019-04-25T06:57:30.451Z,16.60
2019-04-25T07:00:00.776Z,16.50
2019-04-25T07:02:31.058Z,16.30
2019-04-25T07:05:01.347Z,16.20
2019-04-25T07:07:31.780Z,16.00
2019-04-25T07:10:03.611Z,15.90
2019-04-25T07:12:35.747Z,15.80
2019-04-25T07:15:10.380Z,15.90
2019-04-25T07:17:40.632Z,16.00
2019-04-25T07:20:13.898Z,16.20
2019-04-25T07:22:44.242Z,16.40
2019-04-25T07:25:16.153Z,16.60
2019-04-25T07:28:00.286Z,16.60
2019-04-25T07:30:50.067Z,16.50
2019-04-25T07:33:29.767Z,16.40
2019-04-25T07:36:00.051Z,16.30
2019-04-25T07:38:31.059Z,16.30
2019-04-25T07:41:03.384Z,16.30
2019-04-25T07:43:34.144Z,16.50
2019-04-25T07:46:05.793Z,16.60
2019-04-25T07:48:37.161Z,16.70
2019-04-25T07:51:07.983Z,16.70
2019-04-25T07:53:38.280Z,16.70
2019-04-25T07:56:08.534Z,16.70
2019-04-25T07:58:50.333Z,16.60
2019-04-25T08:01:14.992Z,16.70
2019-04-25T08:03:45.647Z,16.80
2019-04-25T08:06:15.911Z,16.90
2019-04-25T08:08:46.173Z,16.90
2019-04-25T08:11:16.465Z,17.00
2019-04-25T08:13:47.487Z,17.20
2019-04-25T08:16:19.447Z,17.40
2019-04-25T08:18:49.841Z,17.60
2019-04-25T08:21:20.162Z,17.70
2019-04-25T08:23:51.294Z,17.70
2019-04-25T08:26:21.589Z,17.50
2019-04-25T08:28:55.708Z,17.40
2019-04-25T08:31:23.856Z,17.40
2019-04-25T08:33:54.108Z,17.40
2019-04-25T08:36:24.382Z,17.40
2019-04-25T08:38:54.947Z,17.40
2019-04-25T08:41:25.227Z,17.50
2019-04-25T08:43:55.582Z,17.50
2019-04-25T08:46:25.837Z,17.60
2019-04-25T08:49:06.130Z,17.70
2019-04-25T08:51:40.319Z,17.80
2019-04-25T08:54:24.102Z,17.90
2019-04-25T08:56:57.163Z,17.90
2019-04-25T08:59:49.423Z,18.00
2019-04-25T09:02:34.931Z,17.90
2019-04-25T09:05:20.455Z,17.90
2019-04-25T09:07:50.885Z,18.00
2019-04-25T09:10:21.315Z,18.00
2019-04-25T09:12:51.642Z,17.90
2019-04-25T09:15:21.898Z,17.80
2019-04-25T09:17:54.288Z,17.70
2019-04-25T09:20:24.301Z,17.80
2019-04-25T09:22:55.669Z,17.90
2019-04-25T09:25:26.083Z,18.20
2019-04-25T09:27:56.338Z,18.40
2019-04-25T09:30:26.596Z,18.60
2019-04-25T09:32:57.080Z,18.70
2019-04-25T09:35:29.207Z,18.80
2019-04-25T09:37:59.920Z,19.00
2019-04-25T09:40:30.304Z,19.10
2019-04-25T09:43:01.013Z,19.30
2019-04-25T09:45:46.067Z,19.50
2019-04-25T09:48:28.219Z,19.60
2019-04-25T09:51:00.106Z,19.90
2019-04-25T09:53:30.393Z,20.10
2019-04-25T09:56:04.966Z,20.20
2019-04-25T09:58:40.078Z,20.20
2019-04-25T10:01:15.909Z,20.50
2019-04-25T10:03:46.270Z,20.60
2019-04-25T10:06:17.250Z,20.80
2019-04-25T10:08:47.550Z,20.90
2019-04-25T10:11:17.932Z,20.80
2019-04-25T10:13:58.671Z,20.60
2019-04-25T10:16:28.956Z,20.60
2019-04-25T10:18:59.465Z,20.70
2019-04-25T10:21:29.752Z,20.80
2019-04-25T10:24:00.002Z,21.00
2019-04-25T10:26:30.363Z,21.10
2019-04-25T10:29:00.629Z,21.30
2019-04-25T10:31:30.904Z,21.40
2019-04-25T10:34:03.715Z,21.50
2019-04-25T10:36:34.235Z,21.60
2019-04-25T10:39:11.000Z,21.70
2019-04-25T10:41:41.656Z,21.70
2019-04-25T10:44:11.922Z,21.80
2019-04-25T10:46:42.461Z,21.90
2019-04-25T10:49:14.489Z,22.00
2019-04-25T10:51:45.789Z,22.00
2019-04-25T10:54:16.226Z,22.20
2019-04-25T10:56:48.115Z,22.40
2019-04-25T10:59:18.463Z,22.50
2019-04-25T11:01:48.963Z,22.50
2019-04-25T11:04:23.799Z,22.40
2019-04-25T11:06:55.149Z,22.30
2019-04-25T11:09:27.531Z,22.30
2019-04-25T11:11:57.837Z,22.20
2019-04-25T11:14:28.079Z,22.10
2019-04-25T11:17:00.110Z,22.00
2019-04-25T11:19:31.028Z,21.90
2019-04-25T11:22:01.774Z,21.90
2019-04-25T11:24:32.064Z,21.90
2019-04-25T11:27:02.349Z,21.80
2019-04-25T11:29:34.193Z,21.90
2019-04-25T11:32:05.660Z,21.80
2019-04-25T11:34:35.953Z,21.90
2019-04-25T11:37:06.229Z,22.00
2019-04-25T11:39:38.157Z,22.00
2019-04-25T11:42:09.707Z,22.10
2019-04-25T11:44:39.998Z,22.00
2019-04-25T11:47:11.169Z,21.90
2019-04-25T11:49:42.090Z,22.00
2019-04-25T11:52:21.432Z,22.00
2019-04-25T11:54:46.853Z,22.10
2019-04-25T11:57:19.535Z,22.20
2019-04-25T11:59:50.736Z,22.20
2019-04-25T12:02:23.960Z,22.20
2019-04-25T12:04:55.244Z,22.30
2019-04-25T12:07:26.962Z,22.50
2019-04-25T12:09:57.309Z,22.50
2019-04-25T12:12:27.672Z,22.50
2019-04-25T12:14:57.916Z,22.60
2019-04-25T12:17:28.594Z,22.60
2019-04-25T12:19:58.852Z,22.50
2019-04-25T12:22:29.151Z,22.50
2019-04-25T12:24:59.400Z,22.50
2019-04-25T12:27:29.654Z,22.50
2019-04-25T12:29:59.920Z,22.60
2019-04-25T12:32:30.210Z,22.70
2019-04-25T12:35:00.724Z,22.70
2019-04-25T12:37:31.176Z,22.60
2019-04-25T12:40:04.053Z,22.70
2019-04-25T12:42:34.365Z,22.80
2019-04-25T12:45:07.574Z,23.00
2019-04-25T12:47:39.508Z,23.10
2019-04-25T12:50:10.243Z,23.20
2019-04-25T12:52:40.548Z,23.30
2019-04-25T12:55:13.951Z,23.30
2019-04-25T12:57:44.357Z,23.30
2019-04-25T13:00:16.243Z,23.20
2019-04-25T13:02:46.505Z,23.30
2019-04-25T13:05:15.949Z,23.20
2019-04-25T13:07:46.040Z,23.30
2019-04-25T13:10:16.281Z,23.50
2019-04-25T13:12:47.020Z,23.60
2019-04-25T13:15:17.718Z,23.70
2019-04-25T13:17:48.499Z,23.60
2019-04-25T13:20:18.769Z,23.70
2019-04-25T13:22:49.048Z,23.80
2019-04-25T13:25:20.947Z,23.80
2019-04-25T13:27:55.557Z,24.00
2019-04-25T13:30:39.574Z,24.10
2019-04-25T13:33:17.312Z,24.20
2019-04-25T13:36:02.068Z,24.30
2019-04-25T13:38:32.454Z,24.60
2019-04-25T13:41:02.731Z,24.90
2019-04-25T13:43:33.285Z,25.10
2019-04-25T13:46:03.606Z,25.20
2019-04-25T13:48:34.710Z,25.40
2019-04-25T13:51:05.988Z,25.70
2019-04-25T13:53:37.102Z,25.70
2019-04-25T13:56:07.588Z,25.90
2019-04-25T13:58:37.834Z,26.20
2019-04-25T14:01:13.268Z,26.90
2019-04-25T14:03:41.708Z,28.70
2019-04-25T14:06:13.578Z,30.70
2019-04-25T14:08:43.948Z,32.80
2019-04-25T14:11:14.295Z,34.60
2019-04-25T14:13:44.583Z,36.10
2019-04-25T14:16:16.641Z,37.20
2019-04-25T14:19:00.893Z,37.90
2019-04-25T14:21:31.650Z,38.70
2019-04-25T14:24:03.142Z,39.00
2019-04-25T14:26:33.506Z,39.70
2019-04-25T14:29:04.272Z,39.60
2019-04-25T14:31:44.857Z,39.50
2019-04-25T14:34:07.023Z,39.90
2019-04-25T14:36:37.306Z,39.80
2019-04-25T14:39:08.098Z,39.60
2019-04-25T14:41:38.454Z,40.10
2019-04-25T14:44:08.714Z,40.10
2019-04-25T14:46:39.322Z,40.60
2019-04-25T14:49:09.876Z,40.50
2019-04-25T14:51:40.360Z,40.80
2019-04-25T14:54:12.812Z,40.70
2019-04-25T14:56:44.727Z,40.90
2019-04-25T14:59:14.981Z,41.10
2019-04-25T15:01:46.344Z,40.90
2019-04-25T15:04:16.617Z,41.40
2019-04-25T15:06:46.916Z,40.60
2019-04-25T15:09:17.701Z,40.20
2019-04-25T15:11:47.993Z,40.20
2019-04-25T15:14:18.727Z,40.60
2019-04-25T15:16:49.090Z,41.10
2019-04-25T15:19:19.373Z,41.30
2019-04-25T15:21:50.209Z,41.70
2019-04-25T15:24:20.509Z,42.00
2019-04-25T15:26:50.765Z,42.30
2019-04-25T15:29:21.019Z,42.60
2019-04-25T15:31:56.166Z,42.50
2019-04-25T15:34:25.967Z,42.60
2019-04-25T15:37:04.915Z,42.10
2019-04-25T15:39:42.967Z,42.10
2019-04-25T15:42:31.937Z,42.10
2019-04-25T15:45:06.715Z,41.80
2019-04-25T15:47:37.072Z,40.00
2019-04-25T15:50:07.595Z,40.00
2019-04-25T15:52:37.893Z,40.70
2019-04-25T15:55:08.843Z,40.80
2019-04-25T15:57:42.330Z,40.80
2019-04-25T16:00:14.237Z,41.00
2019-04-25T16:02:44.494Z,41.40
2019-04-25T16:05:14.750Z,41.40
2019-04-25T16:07:45.035Z,42.10
2019-04-25T16:10:15.323Z,41.80
2019-04-25T16:12:45.678Z,41.40
2019-04-25T16:15:15.970Z,41.10
2019-04-25T16:17:46.318Z,41.30
2019-04-25T16:20:16.587Z,42.40
2019-04-25T16:22:46.836Z,42.80
2019-04-25T16:25:17.214Z,42.60
2019-04-25T16:27:47.475Z,43.40
2019-04-25T16:30:19.406Z,43.00
2019-04-25T16:32:49.695Z,42.90
2019-04-25T16:35:20.327Z,42.40
2019-04-25T16:37:50.617Z,41.50
2019-04-25T16:40:21.104Z,40.50
2019-04-25T16:42:51.456Z,39.30
2019-04-25T16:45:21.733Z,38.10
2019-04-25T16:47:51.983Z,36.90
2019-04-25T16:50:23.014Z,36.30
2019-04-25T16:52:53.264Z,35.60
2019-04-25T16:55:23.635Z,34.40
2019-04-25T16:57:53.879Z,33.50
2019-04-25T17:00:28.216Z,32.70
2019-04-25T17:02:58.460Z,32.20
2019-04-25T17:05:30.832Z,31.20
2019-04-25T17:08:01.446Z,30.10
2019-04-25T17:10:32.722Z,29.10
2019-04-25T17:13:03.152Z,28.20
2019-04-25T17:15:38.411Z,27.60
2019-04-25T17:18:22.187Z,27.10
2019-04-25T17:20:57.065Z,26.80
2019-04-25T17:23:27.317Z,26.60
2019-04-25T17:25:57.598Z,26.80
2019-04-25T17:28:30.315Z,26.70
2019-04-25T17:31:03.331Z,26.30
2019-04-25T17:33:33.864Z,26.00
2019-04-25T17:36:05.747Z,25.60
2019-04-25T17:38:40.384Z,25.20
2019-04-25T17:41:10.772Z,25.10
2019-04-25T17:43:41.847Z,25.50
2019-04-25T17:46:13.885Z,25.40
2019-04-25T17:48:45.517Z,25.20
2019-04-25T17:51:15.787Z,25.00
2019-04-25T17:53:46.048Z,24.40
2019-04-25T17:56:17.075Z,23.80
2019-04-25T17:58:47.351Z,23.20
2019-04-25T18:01:19.294Z,22.70
2019-04-25T18:03:49.565Z,22.30
2019-04-25T18:06:19.824Z,21.80
2019-04-25T18:08:50.114Z,21.50
2019-04-25T18:11:20.430Z,21.10
2019-04-25T18:13:50.667Z,20.90
2019-04-25T18:16:22.582Z,20.60
2019-04-25T18:18:57.246Z,20.40
2019-04-25T18:21:27.503Z,20.20
2019-04-25T18:24:15.811Z,19.90
2019-04-25T18:26:51.406Z,19.70
2019-04-25T18:29:23.318Z,19.50
2019-04-25T18:31:53.606Z,19.20
2019-04-25T18:34:34.934Z,19.10
2019-04-25T18:37:18.952Z,18.90
2019-04-25T18:39:53.319Z,18.70
2019-04-25T18:42:25.243Z,18.60
2019-04-25T18:44:55.501Z,18.40
2019-04-25T18:47:26.339Z,18.20
2019-04-25T18:49:56.592Z,18.10
2019-04-25T18:52:28.485Z,17.90
2019-04-25T18:55:00.447Z,17.80
2019-04-25T18:57:32.414Z,17.70
2019-04-25T19:00:04.298Z,17.50
2019-04-25T19:02:46.016Z,17.50
2019-04-25T19:05:18.048Z,17.40
2019-04-25T19:07:48.329Z,17.20
2019-04-25T19:10:19.085Z,17.10
2019-04-25T19:12:49.337Z,17.00
2019-04-25T19:15:19.716Z,16.90
2019-04-25T19:17:50.037Z,16.80
2019-04-25T19:20:20.328Z,16.80
2019-04-25T19:22:50.820Z,16.60
2019-04-25T19:25:21.081Z,16.50
2019-04-25T19:27:51.383Z,16.40
2019-04-25T19:30:21.699Z,16.40
2019-04-25T19:32:51.958Z,16.30
2019-04-25T19:35:22.207Z,16.30
2019-04-25T19:37:54.120Z,16.20
2019-04-25T19:40:42.583Z,16.10
2019-04-25T19:43:14.775Z,16.00
2019-04-25T19:45:45.059Z,15.80
2019-04-25T19:48:15.331Z,15.80
2019-04-25T19:50:46.388Z,15.60
2019-04-25T19:53:16.685Z,15.60
2019-04-25T19:55:47.592Z,15.50
2019-04-25T19:58:17.921Z,15.40
2019-04-25T20:00:50.970Z,15.30
2019-04-25T20:03:25.740Z,15.30
2019-04-25T20:06:03.672Z,15.20
2019-04-25T20:08:35.661Z,15.10
2019-04-25T20:11:16.563Z,15.10
2019-04-25T20:13:47.342Z,15.10
2019-04-25T20:16:17.753Z,15.00
2019-04-25T20:18:48.018Z,15.00
2019-04-25T20:21:18.287Z,15.00
2019-04-25T20:23:48.572Z,14.90
2019-04-25T20:26:18.875Z,14.90
2019-04-25T20:28:49.121Z,14.90
2019-04-25T20:31:19.395Z,14.90
2019-04-25T20:34:02.318Z,14.80
2019-04-25T20:36:22.056Z,14.80
2019-04-25T20:38:53.290Z,14.80
2019-04-25T20:41:23.691Z,14.70
2019-04-25T20:43:54.927Z,14.70
2019-04-25T20:46:25.408Z,14.60
2019-04-25T20:48:56.501Z,14.60
2019-04-25T20:51:26.797Z,14.50
2019-04-25T20:53:57.159Z,14.50
2019-04-25T20:56:27.509Z,14.40
2019-04-25T20:58:57.868Z,14.40
2019-04-25T21:01:28.152Z,14.30
2019-04-25T21:03:58.455Z,14.30
2019-04-25T21:06:30.440Z,14.20
2019-04-25T21:09:00.781Z,14.20
2019-04-25T21:11:31.029Z,14.10
2019-04-25T21:14:01.387Z,14.00
2019-04-25T21:16:50.398Z,13.90
2019-04-25T21:19:35.759Z,13.80
2019-04-25T21:22:06.066Z,13.80
2019-04-25T21:24:36.420Z,13.70
2019-04-25T21:27:06.670Z,13.70
2019-04-25T21:29:37.031Z,13.80
2019-04-25T21:32:07.286Z,13.90
2019-04-25T21:34:37.570Z,13.90
2019-04-25T21:37:09.777Z,14.00
2019-04-25T21:39:43.679Z,13.90
2019-04-25T21:42:15.791Z,13.80
2019-04-25T21:44:46.410Z,13.90
2019-04-25T21:47:17.033Z,14.00
2019-04-25T21:49:48.492Z,14.10
2019-04-25T21:52:19.372Z,14.10
2019-04-25T21:54:49.920Z,14.10
2019-04-25T21:57:20.274Z,14.10
2019-04-25T22:00:00.388Z,14.10
2019-04-25T22:02:23.759Z,14.00
2019-04-25T22:04:55.325Z,13.90
2019-04-25T22:07:26.411Z,13.80
2019-04-25T22:09:57.026Z,13.80
2019-04-25T22:12:28.662Z,13.70
2019-04-25T22:14:59.275Z,13.80
2019-04-25T22:17:29.669Z,13.70
2019-04-25T22:20:00.353Z,13.70
2019-04-25T22:22:30.921Z,13.70
2019-04-25T22:25:01.161Z,13.60
2019-04-25T22:27:33.062Z,13.60
2019-04-25T22:30:06.068Z,13.50
2019-04-25T22:32:41.110Z,13.40
2019-04-25T22:35:21.505Z,13.30
2019-04-25T22:37:51.787Z,13.40
2019-04-25T22:40:22.078Z,13.40
2019-04-25T22:42:52.584Z,13.40
2019-04-25T22:45:22.874Z,13.30
2019-04-25T22:47:53.327Z,13.30
2019-04-25T22:50:23.897Z,13.20
2019-04-25T22:52:54.176Z,13.10
2019-04-25T22:55:24.444Z,13.10
2019-04-25T22:57:54.706Z,13.10
2019-04-25T23:00:26.626Z,13.00
2019-04-25T23:02:58.893Z,13.00
2019-04-25T23:05:33.772Z,13.00
2019-04-25T23:08:04.427Z,12.90
2019-04-25T23:10:34.704Z,12.90
2019-04-25T23:13:04.940Z,12.80
2019-04-25T23:15:35.204Z,12.80
2019-04-25T23:18:05.668Z,12.70
2019-04-25T23:20:37.281Z,12.70
2019-04-25T23:23:07.759Z,12.80
2019-04-25T23:25:54.838Z,12.80
2019-04-25T23:28:27.019Z,12.80
2019-04-25T23:30:58.931Z,12.80
2019-04-25T23:33:29.248Z,12.80
2019-04-25T23:35:59.806Z,12.80
2019-04-25T23:38:30.048Z,12.80
2019-04-25T23:41:02.202Z,12.80
2019-04-25T23:43:32.480Z,12.80
2019-04-25T23:46:02.789Z,12.70
2019-04-25T23:48:33.449Z,12.80
2019-04-25T23:51:03.705Z,12.80
2019-04-25T23:53:33.951Z,12.90
2019-04-25T23:56:04.252Z,13.00
2019-04-25T23:58:34.522Z,13.00
